sensor_id;sensor_type;location;lat;lon;timestamp;temperature;humidity
39957;DHT22;48483;44.640;7.494;2022-07-24T00:01:14;27.40;95.70
39957;DHT22;48483;44.640;7.494;2022-07-24T00:03:41;27.40;95.70
39957;DHT22;48483;44.640;7.494;2022-07-24T00:06:07;27.40;95.70
39957;DHT22;48483;44.640;7.494;2022-07-24T00:08:35;27.40;95.40
39957;DHT22;48483;44.640;7.494;2022-07-24T00:11:02;27.40;95.00
39957;DHT22;48483;44.640;7.494;2022-07-24T00:13:29;27.40;95.10
39957;DHT22;48483;44.640;7.494;2022-07-24T00:15:56;27.40;95.20
39957;DHT22;48483;44.640;7.494;2022-07-24T00:18:22;27.40;95.00
39957;DHT22;48483;44.640;7.494;2022-07-24T00:20:49;27.50;94.30
39957;DHT22;48483;44.640;7.494;2022-07-24T00:23:16;27.50;93.90
39957;DHT22;48483;44.640;7.494;2022-07-24T00:25:44;27.60;93.70
39957;DHT22;48483;44.640;7.494;2022-07-24T00:28:10;27.60;93.50
39957;DHT22;48483;44.640;7.494;2022-07-24T00:30:37;27.60;93.20
39957;DHT22;48483;44.640;7.494;2022-07-24T00:33:04;27.60;93.20
39957;DHT22;48483;44.640;7.494;2022-07-24T00:35:31;27.70;93.10
39957;DHT22;48483;44.640;7.494;2022-07-24T00:37:58;27.60;93.50
39957;DHT22;48483;44.640;7.494;2022-07-24T00:40:25;27.50;94.30
39957;DHT22;48483;44.640;7.494;2022-07-24T00:42:53;27.40;94.60
39957;DHT22;48483;44.640;7.494;2022-07-24T00:45:20;27.30;94.90
39957;DHT22;48483;44.640;7.494;2022-07-24T00:47:47;27.30;95.10
39957;DHT22;48483;44.640;7.494;2022-07-24T00:50:13;27.30;95.00
39957;DHT22;48483;44.640;7.494;2022-07-24T00:52:40;27.20;95.10
39957;DHT22;48483;44.640;7.494;2022-07-24T00:55:09;27.20;95.40
39957;DHT22;48483;44.640;7.494;2022-07-24T00:57:36;27.20;95.50
39957;DHT22;48483;44.640;7.494;2022-07-24T01:00:06;27.20;95.40
39957;DHT22;48483;44.640;7.494;2022-07-24T01:02:33;27.20;95.30
39957;DHT22;48483;44.640;7.494;2022-07-24T01:05:00;27.20;95.90
39957;DHT22;48483;44.640;7.494;2022-07-24T01:07:27;27.10;96.30
39957;DHT22;48483;44.640;7.494;2022-07-24T01:09:54;27.00;96.50
39957;DHT22;48483;44.640;7.494;2022-07-24T01:12:20;27.00;96.50
39957;DHT22;48483;44.640;7.494;2022-07-24T01:14:47;27.00;96.40
39957;DHT22;48483;44.640;7.494;2022-07-24T01:17:16;27.10;96.30
39957;DHT22;48483;44.640;7.494;2022-07-24T01:19:42;27.10;96.10
39957;DHT22;48483;44.640;7.494;2022-07-24T01:22:10;27.10;96.10
39957;DHT22;48483;44.640;7.494;2022-07-24T01:24:37;27.10;95.90
39957;DHT22;48483;44.640;7.494;2022-07-24T01:27:04;27.10;95.80
39957;DHT22;48483;44.640;7.494;2022-07-24T01:29:31;27.10;95.60
39957;DHT22;48483;44.640;7.494;2022-07-24T01:31:57;27.20;95.40
39957;DHT22;48483;44.640;7.494;2022-07-24T01:34:25;27.10;95.40
39957;DHT22;48483;44.640;7.494;2022-07-24T01:36:52;27.10;95.20
39957;DHT22;48483;44.640;7.494;2022-07-24T01:39:20;27.00;94.40
39957;DHT22;48483;44.640;7.494;2022-07-24T01:41:47;27.10;94.00
39957;DHT22;48483;44.640;7.494;2022-07-24T01:44:14;27.20;93.70
39957;DHT22;48483;44.640;7.494;2022-07-24T01:46:40;27.20;93.10
39957;DHT22;48483;44.640;7.494;2022-07-24T01:49:08;27.20;92.90
39957;DHT22;48483;44.640;7.494;2022-07-24T01:51:47;27.10;93.00
39957;DHT22;48483;44.640;7.494;2022-07-24T01:54:14;27.20;92.90
39957;DHT22;48483;44.640;7.494;2022-07-24T01:56:42;27.20;92.90
39957;DHT22;48483;44.640;7.494;2022-07-24T01:59:08;27.20;92.90
39957;DHT22;48483;44.640;7.494;2022-07-24T02:01:35;27.20;93.00
39957;DHT22;48483;44.640;7.494;2022-07-24T02:04:02;27.20;93.30
39957;DHT22;48483;44.640;7.494;2022-07-24T02:06:29;27.20;93.70
39957;DHT22;48483;44.640;7.494;2022-07-24T02:08:55;27.20;94.00
39957;DHT22;48483;44.640;7.494;2022-07-24T02:11:22;27.10;94.60
39957;DHT22;48483;44.640;7.494;2022-07-24T02:13:50;27.20;95.10
39957;DHT22;48483;44.640;7.494;2022-07-24T02:16:17;27.20;95.30
39957;DHT22;48483;44.640;7.494;2022-07-24T02:18:43;27.20;95.60
39957;DHT22;48483;44.640;7.494;2022-07-24T02:21:10;27.20;95.80
39957;DHT22;48483;44.640;7.494;2022-07-24T02:23:37;27.10;95.70
39957;DHT22;48483;44.640;7.494;2022-07-24T02:26:04;27.00;95.60
39957;DHT22;48483;44.640;7.494;2022-07-24T02:28:31;27.00;95.90
39957;DHT22;48483;44.640;7.494;2022-07-24T02:30:59;26.90;96.30
39957;DHT22;48483;44.640;7.494;2022-07-24T02:33:26;26.90;96.60
39957;DHT22;48483;44.640;7.494;2022-07-24T02:35:52;26.90;96.80
39957;DHT22;48483;44.640;7.494;2022-07-24T02:38:19;26.80;97.20
39957;DHT22;48483;44.640;7.494;2022-07-24T02:40:46;26.90;98.30
39957;DHT22;48483;44.640;7.494;2022-07-24T02:43:13;26.90;99.40
39957;DHT22;48483;44.640;7.494;2022-07-24T02:45:40;27.00;99.90
39957;DHT22;48483;44.640;7.494;2022-07-24T02:48:08;27.00;99.90
39957;DHT22;48483;44.640;7.494;2022-07-24T02:50:35;27.00;99.90
39957;DHT22;48483;44.640;7.494;2022-07-24T02:53:05;27.10;99.70
39957;DHT22;48483;44.640;7.494;2022-07-24T02:55:32;27.00;99.20
39957;DHT22;48483;44.640;7.494;2022-07-24T02:57:58;27.00;98.90
39957;DHT22;48483;44.640;7.494;2022-07-24T03:00:25;27.00;98.20
39957;DHT22;48483;44.640;7.494;2022-07-24T03:02:52;27.10;97.90
39957;DHT22;48483;44.640;7.494;2022-07-24T03:05:20;27.10;97.50
39957;DHT22;48483;44.640;7.494;2022-07-24T03:07:47;27.00;97.00
39957;DHT22;48483;44.640;7.494;2022-07-24T03:10:15;27.10;96.40
39957;DHT22;48483;44.640;7.494;2022-07-24T03:12:42;27.10;96.00
39957;DHT22;48483;44.640;7.494;2022-07-24T03:15:10;27.10;95.60
39957;DHT22;48483;44.640;7.494;2022-07-24T03:17:37;27.10;95.60
39957;DHT22;48483;44.640;7.494;2022-07-24T03:20:05;27.10;95.80
39957;DHT22;48483;44.640;7.494;2022-07-24T03:22:33;27.10;96.00
39957;DHT22;48483;44.640;7.494;2022-07-24T03:24:59;27.00;96.10
39957;DHT22;48483;44.640;7.494;2022-07-24T03:27:27;27.00;96.20
39957;DHT22;48483;44.640;7.494;2022-07-24T03:29:54;27.10;96.20
39957;DHT22;48483;44.640;7.494;2022-07-24T03:32:21;27.00;96.00
39957;DHT22;48483;44.640;7.494;2022-07-24T03:34:47;27.00;96.10
39957;DHT22;48483;44.640;7.494;2022-07-24T03:37:14;27.00;96.00
39957;DHT22;48483;44.640;7.494;2022-07-24T03:39:42;27.00;96.00
39957;DHT22;48483;44.640;7.494;2022-07-24T03:42:09;27.00;96.10
39957;DHT22;48483;44.640;7.494;2022-07-24T03:44:36;27.00;96.10
39957;DHT22;48483;44.640;7.494;2022-07-24T03:47:03;27.00;96.00
39957;DHT22;48483;44.640;7.494;2022-07-24T03:49:30;27.00;96.00
39957;DHT22;48483;44.640;7.494;2022-07-24T03:51:56;27.00;95.90
39957;DHT22;48483;44.640;7.494;2022-07-24T03:54:23;26.90;95.90
39957;DHT22;48483;44.640;7.494;2022-07-24T03:56:52;27.00;96.10
39957;DHT22;48483;44.640;7.494;2022-07-24T03:59:44;26.90;96.50
39957;DHT22;48483;44.640;7.494;2022-07-24T04:02:18;26.80;96.70
39957;DHT22;48483;44.640;7.494;2022-07-24T04:04:44;26.80;97.10
39957;DHT22;48483;44.640;7.494;2022-07-24T04:07:11;26.70;97.40
39957;DHT22;48483;44.640;7.494;2022-07-24T04:09:53;26.60;97.90
39957;DHT22;48483;44.640;7.494;2022-07-24T04:12:21;26.50;97.80
39957;DHT22;48483;44.640;7.494;2022-07-24T04:14:47;26.60;98.00
39957;DHT22;48483;44.640;7.494;2022-07-24T04:17:14;26.50;98.10
39957;DHT22;48483;44.640;7.494;2022-07-24T04:19:41;26.50;98.00
39957;DHT22;48483;44.640;7.494;2022-07-24T04:22:07;26.60;98.20
39957;DHT22;48483;44.640;7.494;2022-07-24T04:24:35;26.50;98.10
39957;DHT22;48483;44.640;7.494;2022-07-24T04:27:01;26.50;98.40
39957;DHT22;48483;44.640;7.494;2022-07-24T04:29:29;26.50;98.20
39957;DHT22;48483;44.640;7.494;2022-07-24T04:31:56;26.50;98.60
39957;DHT22;48483;44.640;7.494;2022-07-24T04:34:23;26.50;98.90
39957;DHT22;48483;44.640;7.494;2022-07-24T04:36:49;26.40;99.20
39957;DHT22;48483;44.640;7.494;2022-07-24T04:39:16;26.40;99.40
39957;DHT22;48483;44.640;7.494;2022-07-24T04:41:43;26.30;99.70
39957;DHT22;48483;44.640;7.494;2022-07-24T04:44:10;26.30;99.90
39957;DHT22;48483;44.640;7.494;2022-07-24T04:46:38;26.30;99.80
39957;DHT22;48483;44.640;7.494;2022-07-24T04:49:04;26.20;99.90
39957;DHT22;48483;44.640;7.494;2022-07-24T04:51:31;26.30;99.90
39957;DHT22;48483;44.640;7.494;2022-07-24T04:53:58;26.30;99.90
39957;DHT22;48483;44.640;7.494;2022-07-24T04:56:24;26.20;99.90
39957;DHT22;48483;44.640;7.494;2022-07-24T04:58:51;26.20;99.90
39957;DHT22;48483;44.640;7.494;2022-07-24T05:01:18;26.20;99.90
39957;DHT22;48483;44.640;7.494;2022-07-24T05:03:46;26.20;99.90
39957;DHT22;48483;44.640;7.494;2022-07-24T05:06:13;26.20;99.90
39957;DHT22;48483;44.640;7.494;2022-07-24T05:08:39;26.20;99.90
39957;DHT22;48483;44.640;7.494;2022-07-24T05:11:06;26.10;99.90
39957;DHT22;48483;44.640;7.494;2022-07-24T05:13:33;26.20;99.90
39957;DHT22;48483;44.640;7.494;2022-07-24T05:15:59;26.10;99.90
39957;DHT22;48483;44.640;7.494;2022-07-24T05:18:26;26.20;99.90
39957;DHT22;48483;44.640;7.494;2022-07-24T05:20:54;26.20;99.90
39957;DHT22;48483;44.640;7.494;2022-07-24T05:23:21;26.20;99.90
39957;DHT22;48483;44.640;7.494;2022-07-24T05:25:48;26.20;99.90
39957;DHT22;48483;44.640;7.494;2022-07-24T05:28:14;26.20;99.90
39957;DHT22;48483;44.640;7.494;2022-07-24T05:30:41;26.30;99.90
39957;DHT22;48483;44.640;7.494;2022-07-24T05:33:08;26.30;99.80
39957;DHT22;48483;44.640;7.494;2022-07-24T05:35:35;26.40;99.40
39957;DHT22;48483;44.640;7.494;2022-07-24T05:38:03;26.40;99.40
39957;DHT22;48483;44.640;7.494;2022-07-24T05:40:30;26.40;99.20
39957;DHT22;48483;44.640;7.494;2022-07-24T05:42:57;26.50;99.20
39957;DHT22;48483;44.640;7.494;2022-07-24T05:45:23;26.50;99.20
39957;DHT22;48483;44.640;7.494;2022-07-24T05:47:50;26.60;99.00
39957;DHT22;48483;44.640;7.494;2022-07-24T05:50:17;26.60;99.00
39957;DHT22;48483;44.640;7.494;2022-07-24T05:52:44;26.70;98.50
39957;DHT22;48483;44.640;7.494;2022-07-24T05:55:12;26.70;98.10
39957;DHT22;48483;44.640;7.494;2022-07-24T05:57:38;26.70;98.40
39957;DHT22;48483;44.640;7.494;2022-07-24T06:00:06;26.80;97.90
39957;DHT22;48483;44.640;7.494;2022-07-24T06:02:38;26.80;97.90
39957;DHT22;48483;44.640;7.494;2022-07-24T06:05:05;26.80;98.20
39957;DHT22;48483;44.640;7.494;2022-07-24T06:07:32;26.90;97.90
39957;DHT22;48483;44.640;7.494;2022-07-24T06:09:59;27.00;97.90
39957;DHT22;48483;44.640;7.494;2022-07-24T06:12:27;27.10;98.40
39957;DHT22;48483;44.640;7.494;2022-07-24T06:14:53;27.20;98.30
39957;DHT22;48483;44.640;7.494;2022-07-24T06:17:20;27.10;97.80
39957;DHT22;48483;44.640;7.494;2022-07-24T06:19:47;27.20;97.70
39957;DHT22;48483;44.640;7.494;2022-07-24T06:22:13;27.30;96.90
39957;DHT22;48483;44.640;7.494;2022-07-24T06:24:40;27.30;96.60
39957;DHT22;48483;44.640;7.494;2022-07-24T06:27:07;27.30;96.50
39957;DHT22;48483;44.640;7.494;2022-07-24T06:29:35;27.40;96.00
39957;DHT22;48483;44.640;7.494;2022-07-24T06:32:02;27.30;95.90
39957;DHT22;48483;44.640;7.494;2022-07-24T06:34:29;27.40;95.80
39957;DHT22;48483;44.640;7.494;2022-07-24T06:36:56;27.50;95.80
39957;DHT22;48483;44.640;7.494;2022-07-24T06:39:23;27.60;95.60
39957;DHT22;48483;44.640;7.494;2022-07-24T06:41:49;27.60;95.50
39957;DHT22;48483;44.640;7.494;2022-07-24T06:44:24;27.60;95.50
39957;DHT22;48483;44.640;7.494;2022-07-24T06:46:52;27.70;95.90
39957;DHT22;48483;44.640;7.494;2022-07-24T06:49:19;27.60;95.90
39957;DHT22;48483;44.640;7.494;2022-07-24T06:51:46;27.70;96.30
39957;DHT22;48483;44.640;7.494;2022-07-24T06:54:14;27.60;96.60
39957;DHT22;48483;44.640;7.494;2022-07-24T06:56:41;27.60;95.20
39957;DHT22;48483;44.640;7.494;2022-07-24T06:59:07;27.60;93.90
39957;DHT22;48483;44.640;7.494;2022-07-24T07:01:34;27.60;93.80
39957;DHT22;48483;44.640;7.494;2022-07-24T07:04:02;27.70;93.80
39957;DHT22;48483;44.640;7.494;2022-07-24T07:06:29;27.80;93.60
39957;DHT22;48483;44.640;7.494;2022-07-24T07:08:56;27.90;93.60
39957;DHT22;48483;44.640;7.494;2022-07-24T07:11:22;27.90;93.70
39957;DHT22;48483;44.640;7.494;2022-07-24T07:13:49;27.90;94.20
39957;DHT22;48483;44.640;7.494;2022-07-24T07:16:16;27.90;94.40
39957;DHT22;48483;44.640;7.494;2022-07-24T07:18:42;27.90;94.50
39957;DHT22;48483;44.640;7.494;2022-07-24T07:21:10;27.90;94.50
39957;DHT22;48483;44.640;7.494;2022-07-24T07:23:37;28.00;94.10
39957;DHT22;48483;44.640;7.494;2022-07-24T07:26:04;28.00;93.90
39957;DHT22;48483;44.640;7.494;2022-07-24T07:28:31;28.10;93.50
39957;DHT22;48483;44.640;7.494;2022-07-24T07:30:58;28.10;93.50
39957;DHT22;48483;44.640;7.494;2022-07-24T07:33:25;28.20;93.20
39957;DHT22;48483;44.640;7.494;2022-07-24T07:35:53;28.20;93.30
39957;DHT22;48483;44.640;7.494;2022-07-24T07:38:21;28.20;93.60
39957;DHT22;48483;44.640;7.494;2022-07-24T07:40:47;28.20;93.80
39957;DHT22;48483;44.640;7.494;2022-07-24T07:43:14;28.20;94.30
39957;DHT22;48483;44.640;7.494;2022-07-24T07:45:41;28.20;94.50
39957;DHT22;48483;44.640;7.494;2022-07-24T07:48:07;28.20;94.40
39957;DHT22;48483;44.640;7.494;2022-07-24T07:50:34;28.20;94.60
39957;DHT22;48483;44.640;7.494;2022-07-24T07:53:01;28.30;94.60
39957;DHT22;48483;44.640;7.494;2022-07-24T07:55:29;28.30;94.40
39957;DHT22;48483;44.640;7.494;2022-07-24T07:57:55;28.30;94.50
39957;DHT22;48483;44.640;7.494;2022-07-24T08:00:22;28.30;94.40
39957;DHT22;48483;44.640;7.494;2022-07-24T08:02:49;28.40;94.50
39957;DHT22;48483;44.640;7.494;2022-07-24T08:05:16;28.40;94.30
39957;DHT22;48483;44.640;7.494;2022-07-24T08:07:42;28.30;94.40
39957;DHT22;48483;44.640;7.494;2022-07-24T08:10:09;28.30;94.60
39957;DHT22;48483;44.640;7.494;2022-07-24T08:12:37;28.20;94.70
39957;DHT22;48483;44.640;7.494;2022-07-24T08:15:05;28.20;94.90
39957;DHT22;48483;44.640;7.494;2022-07-24T08:17:32;28.40;94.60
39957;DHT22;48483;44.640;7.494;2022-07-24T08:20:00;28.40;94.40
39957;DHT22;48483;44.640;7.494;2022-07-24T08:22:27;28.50;94.20
39957;DHT22;48483;44.640;7.494;2022-07-24T08:24:53;28.70;94.00
39957;DHT22;48483;44.640;7.494;2022-07-24T08:27:20;28.70;93.30
39957;DHT22;48483;44.640;7.494;2022-07-24T08:29:48;28.80;93.30
39957;DHT22;48483;44.640;7.494;2022-07-24T08:32:15;28.80;93.30
39957;DHT22;48483;44.640;7.494;2022-07-24T08:34:42;28.90;93.30
39957;DHT22;48483;44.640;7.494;2022-07-24T08:37:08;28.90;93.20
39957;DHT22;48483;44.640;7.494;2022-07-24T08:39:35;28.90;93.20
39957;DHT22;48483;44.640;7.494;2022-07-24T08:42:02;28.90;93.30
39957;DHT22;48483;44.640;7.494;2022-07-24T08:44:28;28.90;93.00
39957;DHT22;48483;44.640;7.494;2022-07-24T08:46:58;29.00;92.90
39957;DHT22;48483;44.640;7.494;2022-07-24T08:49:27;29.10;92.50
39957;DHT22;48483;44.640;7.494;2022-07-24T08:51:58;29.00;92.60
39957;DHT22;48483;44.640;7.494;2022-07-24T08:54:25;29.10;92.60
39957;DHT22;48483;44.640;7.494;2022-07-24T08:56:52;29.10;92.90
39957;DHT22;48483;44.640;7.494;2022-07-24T08:59:20;29.00;93.30
39957;DHT22;48483;44.640;7.494;2022-07-24T09:01:48;29.10;93.60
39957;DHT22;48483;44.640;7.494;2022-07-24T09:04:38;29.20;93.50
39957;DHT22;48483;44.640;7.494;2022-07-24T09:07:06;29.30;93.20
39957;DHT22;48483;44.640;7.494;2022-07-24T09:09:34;29.40;93.00
39957;DHT22;48483;44.640;7.494;2022-07-24T09:12:09;29.50;92.20
39957;DHT22;48483;44.640;7.494;2022-07-24T09:14:37;29.60;91.70
39957;DHT22;48483;44.640;7.494;2022-07-24T09:17:06;29.70;91.70
39957;DHT22;48483;44.640;7.494;2022-07-24T09:19:50;29.50;91.60
39957;DHT22;48483;44.640;7.494;2022-07-24T09:22:23;29.50;92.10
39957;DHT22;48483;44.640;7.494;2022-07-24T09:25:08;29.50;93.10
39957;DHT22;48483;44.640;7.494;2022-07-24T09:27:36;29.60;93.60
39957;DHT22;48483;44.640;7.494;2022-07-24T09:30:05;29.60;93.30
39957;DHT22;48483;44.640;7.494;2022-07-24T09:32:32;29.80;93.20
39957;DHT22;48483;44.640;7.494;2022-07-24T09:35:01;30.00;92.90
39957;DHT22;48483;44.640;7.494;2022-07-24T09:37:28;30.20;92.60
39957;DHT22;48483;44.640;7.494;2022-07-24T09:40:07;30.30;92.20
39957;DHT22;48483;44.640;7.494;2022-07-24T09:42:34;30.20;92.40
39957;DHT22;48483;44.640;7.494;2022-07-24T09:45:07;30.30;92.80
39957;DHT22;48483;44.640;7.494;2022-07-24T09:47:35;30.30;92.60
39957;DHT22;48483;44.640;7.494;2022-07-24T09:50:16;30.40;92.70
39957;DHT22;48483;44.640;7.494;2022-07-24T09:52:44;30.40;92.80
39957;DHT22;48483;44.640;7.494;2022-07-24T09:55:21;30.60;92.70
39957;DHT22;48483;44.640;7.494;2022-07-24T09:57:49;30.60;92.80
39957;DHT22;48483;44.640;7.494;2022-07-24T10:00:16;30.60;92.80
39957;DHT22;48483;44.640;7.494;2022-07-24T10:02:44;30.70;92.40
39957;DHT22;48483;44.640;7.494;2022-07-24T10:05:12;30.80;92.10
39957;DHT22;48483;44.640;7.494;2022-07-24T10:07:41;30.70;91.70
39957;DHT22;48483;44.640;7.494;2022-07-24T10:10:09;30.80;91.60
39957;DHT22;48483;44.640;7.494;2022-07-24T10:12:37;30.70;91.50
39957;DHT22;48483;44.640;7.494;2022-07-24T10:15:05;30.80;91.20
39957;DHT22;48483;44.640;7.494;2022-07-24T10:17:59;30.70;91.50
39957;DHT22;48483;44.640;7.494;2022-07-24T10:20:38;30.80;91.60
39957;DHT22;48483;44.640;7.494;2022-07-24T10:23:07;30.90;92.00
39957;DHT22;48483;44.640;7.494;2022-07-24T10:25:49;31.00;91.70
39957;DHT22;48483;44.640;7.494;2022-07-24T10:28:35;31.10;91.50
39957;DHT22;48483;44.640;7.494;2022-07-24T10:31:06;31.20;91.40
39957;DHT22;48483;44.640;7.494;2022-07-24T10:33:35;31.20;92.00
39957;DHT22;48483;44.640;7.494;2022-07-24T10:36:06;31.20;92.30
39957;DHT22;48483;44.640;7.494;2022-07-24T10:38:38;31.20;91.90
39957;DHT22;48483;44.640;7.494;2022-07-24T10:41:12;31.30;91.90
39957;DHT22;48483;44.640;7.494;2022-07-24T10:43:41;31.40;91.90
39957;DHT22;48483;44.640;7.494;2022-07-24T10:46:27;31.50;91.70
39957;DHT22;48483;44.640;7.494;2022-07-24T10:48:54;31.50;91.60
39957;DHT22;48483;44.640;7.494;2022-07-24T10:51:21;31.50;91.40
39957;DHT22;48483;44.640;7.494;2022-07-24T10:53:54;31.50;90.90
39957;DHT22;48483;44.640;7.494;2022-07-24T10:56:25;31.50;89.70
39957;DHT22;48483;44.640;7.494;2022-07-24T10:58:58;31.50;88.40
39957;DHT22;48483;44.640;7.494;2022-07-24T11:01:36;31.60;89.10
39957;DHT22;48483;44.640;7.494;2022-07-24T11:04:24;31.60;89.00
39957;DHT22;48483;44.640;7.494;2022-07-24T11:06:53;31.70;89.00
39957;DHT22;48483;44.640;7.494;2022-07-24T11:09:22;31.70;88.50
39957;DHT22;48483;44.640;7.494;2022-07-24T11:12:07;31.80;88.20
39957;DHT22;48483;44.640;7.494;2022-07-24T11:14:50;31.90;86.60
39957;DHT22;48483;44.640;7.494;2022-07-24T11:17:37;31.90;87.40
39957;DHT22;48483;44.640;7.494;2022-07-24T11:20:06;31.90;86.10
39957;DHT22;48483;44.640;7.494;2022-07-24T11:22:44;31.80;85.60
39957;DHT22;48483;44.640;7.494;2022-07-24T11:25:17;31.90;84.90
39957;DHT22;48483;44.640;7.494;2022-07-24T11:27:46;31.90;85.00
39957;DHT22;48483;44.640;7.494;2022-07-24T11:30:14;32.00;84.10
39957;DHT22;48483;44.640;7.494;2022-07-24T11:32:41;32.10;83.00
39957;DHT22;48483;44.640;7.494;2022-07-24T11:35:09;32.10;83.30
39957;DHT22;48483;44.640;7.494;2022-07-24T11:37:36;32.10;81.90
39957;DHT22;48483;44.640;7.494;2022-07-24T11:40:05;31.90;81.10
39957;DHT22;48483;44.640;7.494;2022-07-24T11:42:34;32.00;81.10
39957;DHT22;48483;44.640;7.494;2022-07-24T11:45:02;32.10;80.20
39957;DHT22;48483;44.640;7.494;2022-07-24T11:47:29;32.10;80.20
39957;DHT22;48483;44.640;7.494;2022-07-24T11:49:58;32.30;81.10
39957;DHT22;48483;44.640;7.494;2022-07-24T11:52:28;32.30;79.70
39957;DHT22;48483;44.640;7.494;2022-07-24T11:54:59;32.30;80.00
39957;DHT22;48483;44.640;7.494;2022-07-24T11:57:27;32.40;79.00
39957;DHT22;48483;44.640;7.494;2022-07-24T11:59:56;32.50;78.60
39957;DHT22;48483;44.640;7.494;2022-07-24T12:02:23;32.60;78.40
39957;DHT22;48483;44.640;7.494;2022-07-24T12:04:50;32.60;78.00
39957;DHT22;48483;44.640;7.494;2022-07-24T12:07:20;32.60;77.50
39957;DHT22;48483;44.640;7.494;2022-07-24T12:09:48;32.60;77.00
39957;DHT22;48483;44.640;7.494;2022-07-24T12:12:24;32.70;76.50
39957;DHT22;48483;44.640;7.494;2022-07-24T12:14:52;32.80;75.50
39957;DHT22;48483;44.640;7.494;2022-07-24T12:17:21;32.80;74.30
39957;DHT22;48483;44.640;7.494;2022-07-24T12:19:52;32.90;73.10
39957;DHT22;48483;44.640;7.494;2022-07-24T12:22:20;32.90;72.10
39957;DHT22;48483;44.640;7.494;2022-07-24T12:24:48;32.90;71.00
39957;DHT22;48483;44.640;7.494;2022-07-24T12:27:36;32.80;71.10
39957;DHT22;48483;44.640;7.494;2022-07-24T12:30:16;32.60;70.30
39957;DHT22;48483;44.640;7.494;2022-07-24T12:33:01;32.60;70.40
39957;DHT22;48483;44.640;7.494;2022-07-24T12:35:30;32.70;69.00
39957;DHT22;48483;44.640;7.494;2022-07-24T12:37:58;32.80;63.00
39957;DHT22;48483;44.640;7.494;2022-07-24T12:40:27;32.70;59.10
39957;DHT22;48483;44.640;7.494;2022-07-24T12:43:03;32.90;58.60
39957;DHT22;48483;44.640;7.494;2022-07-24T12:45:30;32.90;59.40
39957;DHT22;48483;44.640;7.494;2022-07-24T12:48:17;32.90;61.80
39957;DHT22;48483;44.640;7.494;2022-07-24T12:51:07;32.90;62.90
39957;DHT22;48483;44.640;7.494;2022-07-24T12:53:40;32.90;62.50
39957;DHT22;48483;44.640;7.494;2022-07-24T12:56:13;33.00;62.20
39957;DHT22;48483;44.640;7.494;2022-07-24T12:58:58;33.00;62.50
39957;DHT22;48483;44.640;7.494;2022-07-24T13:01:27;32.90;63.70
39957;DHT22;48483;44.640;7.494;2022-07-24T13:03:58;32.80;65.50
39957;DHT22;48483;44.640;7.494;2022-07-24T13:06:33;32.80;65.80
39957;DHT22;48483;44.640;7.494;2022-07-24T13:09:01;32.90;65.90
39957;DHT22;48483;44.640;7.494;2022-07-24T13:11:28;32.90;65.40
39957;DHT22;48483;44.640;7.494;2022-07-24T13:13:54;32.80;64.60
39957;DHT22;48483;44.640;7.494;2022-07-24T13:16:21;32.60;63.70
39957;DHT22;48483;44.640;7.494;2022-07-24T13:18:50;32.70;64.10
39957;DHT22;48483;44.640;7.494;2022-07-24T13:21:19;32.80;62.30
39957;DHT22;48483;44.640;7.494;2022-07-24T13:23:46;32.90;60.20
39957;DHT22;48483;44.640;7.494;2022-07-24T13:26:12;33.00;59.90
39957;DHT22;48483;44.640;7.494;2022-07-24T13:28:39;33.00;59.60
39957;DHT22;48483;44.640;7.494;2022-07-24T13:31:07;33.10;59.60
39957;DHT22;48483;44.640;7.494;2022-07-24T13:33:33;33.20;58.90
39957;DHT22;48483;44.640;7.494;2022-07-24T13:36:00;33.20;58.10
39957;DHT22;48483;44.640;7.494;2022-07-24T13:38:28;33.20;58.50
39957;DHT22;48483;44.640;7.494;2022-07-24T13:40:55;33.30;59.30
39957;DHT22;48483;44.640;7.494;2022-07-24T13:43:22;33.30;59.00
39957;DHT22;48483;44.640;7.494;2022-07-24T13:45:51;33.30;59.50
39957;DHT22;48483;44.640;7.494;2022-07-24T13:48:18;33.30;59.90
39957;DHT22;48483;44.640;7.494;2022-07-24T13:50:44;33.40;59.60
39957;DHT22;48483;44.640;7.494;2022-07-24T13:53:11;33.40;58.30
39957;DHT22;48483;44.640;7.494;2022-07-24T13:55:39;33.30;58.40
39957;DHT22;48483;44.640;7.494;2022-07-24T13:58:06;33.10;57.90
39957;DHT22;48483;44.640;7.494;2022-07-24T14:00:33;33.10;59.00
39957;DHT22;48483;44.640;7.494;2022-07-24T14:03:00;33.10;59.50
39957;DHT22;48483;44.640;7.494;2022-07-24T14:05:27;33.10;59.50
39957;DHT22;48483;44.640;7.494;2022-07-24T14:07:54;33.20;59.10
39957;DHT22;48483;44.640;7.494;2022-07-24T14:10:21;33.30;58.50
39957;DHT22;48483;44.640;7.494;2022-07-24T14:12:50;33.30;58.60
39957;DHT22;48483;44.640;7.494;2022-07-24T14:15:17;33.30;58.90
39957;DHT22;48483;44.640;7.494;2022-07-24T14:17:44;33.40;57.80
39957;DHT22;48483;44.640;7.494;2022-07-24T14:20:12;33.40;57.90
39957;DHT22;48483;44.640;7.494;2022-07-24T14:22:40;33.40;58.40
39957;DHT22;48483;44.640;7.494;2022-07-24T14:25:08;33.40;58.90
39957;DHT22;48483;44.640;7.494;2022-07-24T14:27:35;33.30;59.40
39957;DHT22;48483;44.640;7.494;2022-07-24T14:30:04;33.30;59.60
39957;DHT22;48483;44.640;7.494;2022-07-24T14:32:31;33.30;60.70
39957;DHT22;48483;44.640;7.494;2022-07-24T14:34:59;33.10;61.40
39957;DHT22;48483;44.640;7.494;2022-07-24T14:37:26;33.20;61.70
39957;DHT22;48483;44.640;7.494;2022-07-24T14:39:53;33.10;62.40
39957;DHT22;48483;44.640;7.494;2022-07-24T14:42:20;33.10;61.60
39957;DHT22;48483;44.640;7.494;2022-07-24T14:44:46;33.30;61.70
39957;DHT22;48483;44.640;7.494;2022-07-24T14:47:14;33.30;61.60
39957;DHT22;48483;44.640;7.494;2022-07-24T14:49:41;33.40;61.60
39957;DHT22;48483;44.640;7.494;2022-07-24T14:52:08;33.30;61.00
39957;DHT22;48483;44.640;7.494;2022-07-24T14:54:34;33.30;60.70
39957;DHT22;48483;44.640;7.494;2022-07-24T14:57:01;33.30;60.80
39957;DHT22;48483;44.640;7.494;2022-07-24T14:59:28;33.30;61.60
39957;DHT22;48483;44.640;7.494;2022-07-24T15:01:54;33.30;60.20
39957;DHT22;48483;44.640;7.494;2022-07-24T15:04:22;33.30;59.80
39957;DHT22;48483;44.640;7.494;2022-07-24T15:06:49;33.20;59.40
39957;DHT22;48483;44.640;7.494;2022-07-24T15:09:16;33.30;59.70
39957;DHT22;48483;44.640;7.494;2022-07-24T15:11:42;33.30;59.60
39957;DHT22;48483;44.640;7.494;2022-07-24T15:14:09;33.40;60.30
39957;DHT22;48483;44.640;7.494;2022-07-24T15:16:36;33.40;59.60
39957;DHT22;48483;44.640;7.494;2022-07-24T15:19:03;33.40;59.80
39957;DHT22;48483;44.640;7.494;2022-07-24T15:21:31;33.30;59.00
39957;DHT22;48483;44.640;7.494;2022-07-24T15:23:58;33.20;58.90
39957;DHT22;48483;44.640;7.494;2022-07-24T15:26:25;33.20;59.00
39957;DHT22;48483;44.640;7.494;2022-07-24T15:28:51;33.20;59.10
39957;DHT22;48483;44.640;7.494;2022-07-24T15:31:18;33.30;58.60
39957;DHT22;48483;44.640;7.494;2022-07-24T15:33:46;33.30;57.60
39957;DHT22;48483;44.640;7.494;2022-07-24T15:36:12;33.30;57.80
39957;DHT22;48483;44.640;7.494;2022-07-24T15:38:41;33.40;58.90